Time;durP1;ratioP1;P1;durP2;ratioP2;P2;SDS_P1;SDS_P2;PMS_P1;PMS_P2;Temp;Humidity;BMP_temperature;BMP_pressure;BME280_temperature;BME280_humidity;BME280_pressure;Samples;Min_cycle;Max_cycle;Signal;HPM_P1;HPM_P2
2022/08/02 00:01:24;;;;;;;4.17;1.60;;;;;;;;;;5053016;28;20185;-71
2022/08/02 00:03:49;;;;;;;1.87;1.40;;;;;;;;;;5036141;28;20185;-70
2022/08/02 00:06:14;;;;;;;4.33;1.70;;;;;;;;;;5032903;28;20181;-70
2022/08/02 00:08:39;;;;;;;2.20;1.83;;;;;;;;;;5052608;28;20230;-70
2022/08/02 00:11:05;;;;;;;2.80;1.70;;;;;;;;;;5051259;28;20174;-71
2022/08/02 00:13:30;;;;;;;1.30;1.20;;;;;;;;;;5034963;28;20177;-72
2022/08/02 00:15:55;;;;;;;4.00;1.87;;;;;;;;;;5059037;28;20178;-72
2022/08/02 00:18:20;;;;;;;1.80;1.60;;;;;;;;;;5047689;28;20198;-71
2022/08/02 00:20:46;;;;;;;3.17;1.60;;;;;;;;;;5050283;28;20274;-72
2022/08/02 00:23:11;;;;;;;1.60;1.50;;;;;;;;;;5052616;28;20240;-71
2022/08/02 00:25:36;;;;;;;3.33;1.37;;;;;;;;;;5039498;28;20217;-71
2022/08/02 00:28:01;;;;;;;4.20;2.10;;;;;;;;;;5047939;28;20181;-71
2022/08/02 00:30:27;;;;;;;2.73;1.50;;;;;;;;;;5034058;28;20186;-71
2022/08/02 00:32:52;;;;;;;2.43;1.60;;;;;;;;;;5034505;28;20185;-70
2022/08/02 00:35:17;;;;;;;1.67;1.57;;;;;;;;;;5036074;28;20183;-71
2022/08/02 00:37:43;;;;;;;1.50;1.40;;;;;;;;;;5048033;28;20177;-71
2022/08/02 00:40:09;;;;;;;3.30;2.00;;;;;;;;;;5050402;28;20186;-71
2022/08/02 00:42:34;;;;;;;2.73;1.60;;;;;;;;;;5031469;28;20510;-71
2022/08/02 00:44:59;;;;;;;1.60;1.50;;;;;;;;;;5048492;28;20208;-71
2022/08/02 00:47:24;;;;;;;2.70;1.40;;;;;;;;;;5037611;28;20212;-73
2022/08/02 00:49:49;;;;;;;1.77;1.60;;;;;;;;;;5039362;28;20235;-71
2022/08/02 00:52:15;;;;;;;1.80;1.70;;;;;;;;;;5047784;28;20195;-71
2022/08/02 00:54:40;;;;;;;1.83;1.70;;;;;;;;;;5032777;28;20174;-71
2022/08/02 00:57:05;;;;;;;1.83;1.60;;;;;;;;;;5031659;28;20184;-71
2022/08/02 00:59:30;;;;;;;3.00;1.90;;;;;;;;;;5041937;28;20186;-71
2022/08/02 01:01:56;;;;;;;2.23;1.83;;;;;;;;;;5030023;28;20196;-71
2022/08/02 01:04:21;;;;;;;3.07;1.83;;;;;;;;;;5039869;28;20229;-71
2022/08/02 01:06:46;;;;;;;2.30;2.00;;;;;;;;;;5049825;28;20177;-71
2022/08/02 01:09:11;;;;;;;1.90;1.70;;;;;;;;;;5028305;28;20186;-72
2022/08/02 01:11:37;;;;;;;2.80;1.87;;;;;;;;;;5030339;28;20178;-71
2022/08/02 01:14:12;;;;;;;1.83;1.70;;;;;;;;;;5032571;28;20186;-71
2022/08/02 01:16:52;;;;;;;3.57;1.77;;;;;;;;;;5030175;28;20199;-71
2022/08/02 01:19:33;;;;;;;4.00;1.80;;;;;;;;;;5034778;28;20222;-71
2022/08/02 01:22:10;;;;;;;3.03;2.10;;;;;;;;;;5026444;28;20221;-71
2022/08/02 01:24:50;;;;;;;2.07;1.90;;;;;;;;;;5050048;28;20201;-71
2022/08/02 01:27:28;;;;;;;2.10;1.90;;;;;;;;;;5052516;28;20172;-72
2022/08/02 01:29:56;;;;;;;1.80;1.70;;;;;;;;;;5041052;28;20648;-71
2022/08/02 01:32:26;;;;;;;2.60;1.73;;;;;;;;;;5044651;28;20227;-71
2022/08/02 01:34:54;;;;;;;1.90;1.70;;;;;;;;;;5029678;28;20220;-71
2022/08/02 01:37:23;;;;;;;1.80;1.70;;;;;;;;;;5059086;28;20253;-71
2022/08/02 01:39:50;;;;;;;2.07;1.93;;;;;;;;;;5034389;28;20203;-71
2022/08/02 01:42:17;;;;;;;2.13;1.80;;;;;;;;;;5050093;28;20199;-72
2022/08/02 01:44:43;;;;;;;4.63;2.27;;;;;;;;;;5059656;28;20212;-71
2022/08/02 01:47:09;;;;;;;2.13;1.93;;;;;;;;;;5056204;28;20173;-71
2022/08/02 01:49:36;;;;;;;1.77;1.60;;;;;;;;;;5046210;28;20228;-72
2022/08/02 01:52:20;;;;;;;1.93;1.83;;;;;;;;;;5032691;28;20241;-71
2022/08/02 01:54:51;;;;;;;2.17;2.00;;;;;;;;;;5030439;28;20199;-71
2022/08/02 01:57:17;;;;;;;2.17;2.00;;;;;;;;;;5042589;28;20184;-71
2022/08/02 01:59:43;;;;;;;2.70;1.87;;;;;;;;;;5030294;28;20222;-71
2022/08/02 02:02:09;;;;;;;2.13;1.93;;;;;;;;;;5030726;28;20246;-72
2022/08/02 02:04:36;;;;;;;2.73;2.53;;;;;;;;;;5024360;28;20279;-71
2022/08/02 02:07:01;;;;;;;2.37;1.87;;;;;;;;;;5049880;28;20172;-72
2022/08/02 02:09:28;;;;;;;3.10;2.53;;;;;;;;;;5036199;28;20306;-71
2022/08/02 02:11:55;;;;;;;2.30;2.10;;;;;;;;;;5019331;28;20174;-71
2022/08/02 02:14:20;;;;;;;3.03;2.73;;;;;;;;;;5052181;28;20199;-71
2022/08/02 02:16:46;;;;;;;2.67;2.17;;;;;;;;;;5023672;28;20181;-71
2022/08/02 02:19:15;;;;;;;2.70;2.23;;;;;;;;;;5030200;28;20208;-71
2022/08/02 02:21:40;;;;;;;1.97;1.80;;;;;;;;;;5039343;28;20221;-71
2022/08/02 02:24:05;;;;;;;2.30;2.10;;;;;;;;;;5035083;28;20225;-72
2022/08/02 02:26:31;;;;;;;2.40;2.20;;;;;;;;;;5052141;28;20171;-71
2022/08/02 02:28:57;;;;;;;2.03;1.83;;;;;;;;;;5049449;28;20228;-72
2022/08/02 02:31:23;;;;;;;3.70;2.20;;;;;;;;;;5056649;28;20269;-72
2022/08/02 02:33:49;;;;;;;2.50;2.30;;;;;;;;;;5049226;28;20251;-71
2022/08/02 02:36:16;;;;;;;2.53;2.33;;;;;;;;;;5040709;28;20196;-72
2022/08/02 02:38:41;;;;;;;2.97;2.60;;;;;;;;;;5040996;28;20187;-72
2022/08/02 02:41:07;;;;;;;4.17;2.40;;;;;;;;;;5051768;28;20172;-70
2022/08/02 02:43:33;;;;;;;5.23;3.03;;;;;;;;;;5044757;28;20211;-70
2022/08/02 02:46:00;;;;;;;2.83;2.60;;;;;;;;;;5056295;28;20481;-71
2022/08/02 02:48:26;;;;;;;2.87;2.57;;;;;;;;;;5026912;28;20277;-71
2022/08/02 02:50:52;;;;;;;2.53;2.33;;;;;;;;;;5032046;28;20184;-72
2022/08/02 02:53:18;;;;;;;4.87;2.43;;;;;;;;;;5051182;28;20279;-70
2022/08/02 02:55:43;;;;;;;3.67;2.80;;;;;;;;;;5034043;28;20332;-71
2022/08/02 02:58:09;;;;;;;3.00;2.70;;;;;;;;;;5049520;28;20184;-71
2022/08/02 03:03:19;;;;;;;7.03;2.40;;;;;;;;;;5048961;28;20186;-72
2022/08/02 03:05:44;;;;;;;2.87;2.57;;;;;;;;;;5034300;28;20196;-71
2022/08/02 03:08:09;;;;;;;3.23;2.90;;;;;;;;;;5025994;28;20188;-71
2022/08/02 03:10:35;;;;;;;3.13;2.90;;;;;;;;;;5047847;28;20172;-72
2022/08/02 03:13:00;;;;;;;3.70;2.70;;;;;;;;;;5051665;28;20251;-71
2022/08/02 03:15:32;;;;;;;8.43;3.43;;;;;;;;;;5025647;28;20211;-71
2022/08/02 03:17:57;;;;;;;4.43;3.47;;;;;;;;;;5044199;28;20206;-71
2022/08/02 03:20:22;;;;;;;3.27;2.87;;;;;;;;;;5051194;28;20196;-71
2022/08/02 03:22:47;;;;;;;4.03;3.60;;;;;;;;;;5030713;28;20223;-71
2022/08/02 03:25:13;;;;;;;3.70;3.40;;;;;;;;;;5011110;28;20263;-71
2022/08/02 03:27:39;;;;;;;3.83;3.53;;;;;;;;;;5011887;28;20180;-71
2022/08/02 03:30:06;;;;;;;4.37;3.97;;;;;;;;;;5007975;28;20209;-71
2022/08/02 03:32:31;;;;;;;4.13;3.60;;;;;;;;;;5024132;28;20235;-71
2022/08/02 03:34:57;;;;;;;4.67;4.20;;;;;;;;;;5016580;28;20185;-71
2022/08/02 03:37:22;;;;;;;4.10;3.80;;;;;;;;;;5028717;28;20185;-71
2022/08/02 03:39:48;;;;;;;5.10;4.13;;;;;;;;;;5014870;28;20211;-71
2022/08/02 03:42:14;;;;;;;4.30;3.90;;;;;;;;;;5007394;28;20251;-71
2022/08/02 03:44:39;;;;;;;4.43;3.67;;;;;;;;;;5024824;28;20250;-71
2022/08/02 03:47:05;;;;;;;5.00;3.70;;;;;;;;;;5022937;28;20209;-71
2022/08/02 03:49:31;;;;;;;5.03;3.23;;;;;;;;;;5003577;28;20180;-71
2022/08/02 03:51:56;;;;;;;3.80;3.17;;;;;;;;;;5029438;28;20176;-71
2022/08/02 03:54:22;;;;;;;3.10;2.90;;;;;;;;;;5021650;28;20213;-71
2022/08/02 03:56:47;;;;;;;3.90;2.80;;;;;;;;;;5027242;28;20168;-70
2022/08/02 03:59:13;;;;;;;2.77;2.57;;;;;;;;;;5005605;28;20184;-71
2022/08/02 04:01:38;;;;;;;3.53;3.20;;;;;;;;;;5028443;28;20205;-71
2022/08/02 04:04:04;;;;;;;4.67;3.23;;;;;;;;;;5024042;28;20253;-71
2022/08/02 04:06:29;;;;;;;4.07;3.40;;;;;;;;;;5015909;28;20168;-70
2022/08/02 04:08:55;;;;;;;4.07;3.67;;;;;;;;;;5019730;28;20176;-71
2022/08/02 04:11:30;;;;;;;4.23;3.50;;;;;;;;;;5012671;28;20189;-71
2022/08/02 04:13:56;;;;;;;3.67;3.37;;;;;;;;;;4999564;28;20175;-71
2022/08/02 04:16:22;;;;;;;4.97;3.90;;;;;;;;;;4995097;28;20185;-71
2022/08/02 04:19:07;;;;;;;5.70;3.97;;;;;;;;;;5035417;28;20191;-71
2022/08/02 04:21:35;;;;;;;4.00;3.70;;;;;;;;;;5032184;28;20208;-71
2022/08/02 04:24:02;;;;;;;4.73;3.97;;;;;;;;;;5029869;28;20222;-72
2022/08/02 04:26:28;;;;;;;4.17;3.87;;;;;;;;;;5013808;28;20175;-71
2022/08/02 04:28:53;;;;;;;3.63;3.33;;;;;;;;;;5016152;28;20316;-71
2022/08/02 04:31:19;;;;;;;4.20;3.80;;;;;;;;;;5009893;28;20299;-71
2022/08/02 04:33:45;;;;;;;5.17;4.23;;;;;;;;;;5029638;28;20181;-71
2022/08/02 04:36:13;;;;;;;5.87;4.07;;;;;;;;;;5034991;28;20211;-71
2022/08/02 04:38:38;;;;;;;3.87;3.53;;;;;;;;;;5011774;28;20262;-71
2022/08/02 04:41:03;;;;;;;5.33;4.03;;;;;;;;;;5017200;28;20222;-71
2022/08/02 04:43:29;;;;;;;5.83;4.17;;;;;;;;;;5015847;28;20173;-71
2022/08/02 04:45:56;;;;;;;4.67;3.70;;;;;;;;;;5021223;28;20202;-71
2022/08/02 04:48:22;;;;;;;4.50;3.40;;;;;;;;;;5018209;28;20180;-71
2022/08/02 04:50:47;;;;;;;4.23;3.83;;;;;;;;;;5017145;28;20200;-71
2022/08/02 04:53:12;;;;;;;5.10;3.63;;;;;;;;;;5012535;28;20225;-71
2022/08/02 04:55:38;;;;;;;6.27;4.47;;;;;;;;;;5030091;28;20193;-73
2022/08/02 04:58:03;;;;;;;4.77;4.00;;;;;;;;;;5029500;28;20199;-71
2022/08/02 05:00:28;;;;;;;5.90;4.03;;;;;;;;;;5004047;28;20248;-71
2022/08/02 05:02:57;;;;;;;3.67;3.37;;;;;;;;;;5012167;28;20225;-71
2022/08/02 05:05:23;;;;;;;3.33;3.03;;;;;;;;;;5009057;28;20222;-71
2022/08/02 05:07:48;;;;;;;5.80;3.87;;;;;;;;;;5026620;28;20190;-71
2022/08/02 05:10:13;;;;;;;4.33;3.50;;;;;;;;;;5008972;28;20191;-71
2022/08/02 05:12:39;;;;;;;3.23;2.93;;;;;;;;;;5012013;28;20219;-71
2022/08/02 05:15:04;;;;;;;3.40;3.10;;;;;;;;;;5031979;28;20177;-70
2022/08/02 05:17:30;;;;;;;6.80;3.17;;;;;;;;;;5014011;28;20183;-72
2022/08/02 05:19:55;;;;;;;3.10;2.90;;;;;;;;;;5011616;28;20262;-71
2022/08/02 05:22:20;;;;;;;4.27;2.80;;;;;;;;;;5019605;28;20259;-71
2022/08/02 05:24:45;;;;;;;3.40;3.07;;;;;;;;;;5051600;28;20205;-71
2022/08/02 05:27:11;;;;;;;4.37;2.77;;;;;;;;;;5046588;28;20170;-71
2022/08/02 05:29:36;;;;;;;2.90;2.57;;;;;;;;;;5051804;28;20192;-72
2022/08/02 05:32:01;;;;;;;4.40;3.20;;;;;;;;;;5044731;28;20224;-70
2022/08/02 05:34:26;;;;;;;4.53;2.30;;;;;;;;;;5048385;28;20205;-71
2022/08/02 05:36:51;;;;;;;2.80;2.57;;;;;;;;;;5048116;28;20186;-71
2022/08/02 05:39:17;;;;;;;4.80;2.70;;;;;;;;;;5032470;28;20200;-72
2022/08/02 05:41:42;;;;;;;2.43;2.23;;;;;;;;;;5051534;28;20205;-71
2022/08/02 05:44:07;;;;;;;3.63;3.33;;;;;;;;;;5033354;28;20252;-71
2022/08/02 05:46:32;;;;;;;5.47;2.53;;;;;;;;;;5050964;28;20258;-71
2022/08/02 05:49:00;;;;;;;6.37;2.50;;;;;;;;;;5034755;28;20178;-71
2022/08/02 05:51:33;;;;;;;2.50;2.30;;;;;;;;;;5051305;28;20229;-70
2022/08/02 05:54:22;;;;;;;4.83;3.43;;;;;;;;;;5033221;28;20269;-71
2022/08/02 05:56:54;;;;;;;4.43;2.77;;;;;;;;;;5049309;28;20263;-71
2022/08/02 05:59:22;;;;;;;3.20;2.27;;;;;;;;;;5049676;28;20259;-70
2022/08/02 06:01:52;;;;;;;2.83;2.63;;;;;;;;;;5049762;28;20264;-71
2022/08/02 06:04:33;;;;;;;4.23;3.07;;;;;;;;;;5050679;28;20251;-71
2022/08/02 06:07:01;;;;;;;4.37;3.07;;;;;;;;;;5048853;28;20174;-71
2022/08/02 06:09:26;;;;;;;2.77;2.20;;;;;;;;;;5030776;28;20457;-71
2022/08/02 06:11:52;;;;;;;3.43;2.80;;;;;;;;;;5043657;28;20177;-71
2022/08/02 06:14:18;;;;;;;3.17;2.97;;;;;;;;;;5043797;28;20186;-71
2022/08/02 06:16:43;;;;;;;2.50;2.30;;;;;;;;;;5031478;28;20205;-71
2022/08/02 06:19:10;;;;;;;3.83;3.23;;;;;;;;;;5054103;28;20280;-72
2022/08/02 06:21:37;;;;;;;2.53;2.33;;;;;;;;;;5032361;28;20226;-71
2022/08/02 06:24:04;;;;;;;3.00;2.70;;;;;;;;;;5031868;28;20573;-72
2022/08/02 06:26:29;;;;;;;3.07;2.80;;;;;;;;;;5043627;28;20205;-72
2022/08/02 06:28:56;;;;;;;6.63;2.93;;;;;;;;;;5031293;28;20239;-71
2022/08/02 06:31:21;;;;;;;8.60;3.27;;;;;;;;;;5029027;28;20273;-71
2022/08/02 06:33:47;;;;;;;6.37;3.13;;;;;;;;;;5029810;28;20272;-71
2022/08/02 06:36:18;;;;;;;6.40;2.83;;;;;;;;;;5053184;28;20182;-71
2022/08/02 06:38:48;;;;;;;14.13;3.47;;;;;;;;;;5030264;28;20175;-71
2022/08/02 06:41:13;;;;;;;6.63;3.33;;;;;;;;;;5045292;28;20210;-71
2022/08/02 06:43:42;;;;;;;5.73;2.73;;;;;;;;;;5047424;28;20572;-71
2022/08/02 06:46:07;;;;;;;3.13;2.70;;;;;;;;;;5047561;28;20207;-71
2022/08/02 06:48:34;;;;;;;4.63;2.60;;;;;;;;;;5028310;28;20182;-71
2022/08/02 06:51:00;;;;;;;7.03;3.30;;;;;;;;;;5045276;28;20226;-71
2022/08/02 06:53:25;;;;;;;5.13;3.03;;;;;;;;;;5029119;28;20187;-71
2022/08/02 06:55:50;;;;;;;3.57;3.17;;;;;;;;;;5049429;28;20175;-71
2022/08/02 06:58:16;;;;;;;7.67;3.80;;;;;;;;;;5034361;28;20190;-72
2022/08/02 07:00:42;;;;;;;7.53;4.00;;;;;;;;;;5043729;28;20186;-71
2022/08/02 07:03:07;;;;;;;3.50;3.20;;;;;;;;;;5049183;28;20183;-71
2022/08/02 07:05:33;;;;;;;4.20;3.30;;;;;;;;;;5032412;28;20195;-71
2022/08/02 07:07:58;;;;;;;9.20;3.73;;;;;;;;;;5039390;28;20177;-71
2022/08/02 07:10:24;;;;;;;5.63;3.73;;;;;;;;;;5022606;28;20184;-72
2022/08/02 07:12:49;;;;;;;3.83;2.93;;;;;;;;;;5048331;28;20181;-71
2022/08/02 07:15:15;;;;;;;5.30;4.20;;;;;;;;;;5047491;28;20184;-71
2022/08/02 07:17:40;;;;;;;3.70;3.40;;;;;;;;;;5033283;28;20261;-71
2022/08/02 07:20:06;;;;;;;4.00;3.70;;;;;;;;;;5033564;28;20188;-72
2022/08/02 07:22:31;;;;;;;4.10;3.70;;;;;;;;;;5042781;28;20322;-71
2022/08/02 07:24:57;;;;;;;7.33;4.37;;;;;;;;;;5022998;28;20198;-72
2022/08/02 07:27:23;;;;;;;6.57;3.93;;;;;;;;;;5043976;28;20277;-72
2022/08/02 07:29:48;;;;;;;3.60;3.33;;;;;;;;;;5033493;28;20244;-71
2022/08/02 07:32:15;;;;;;;4.17;3.83;;;;;;;;;;5051931;28;20180;-70
2022/08/02 07:34:40;;;;;;;4.30;3.90;;;;;;;;;;5030515;28;20185;-72
2022/08/02 07:37:05;;;;;;;4.23;3.33;;;;;;;;;;5046775;28;20197;-71
2022/08/02 07:39:30;;;;;;;5.50;3.53;;;;;;;;;;5031937;28;20236;-72
2022/08/02 07:41:56;;;;;;;3.43;3.17;;;;;;;;;;5035631;28;20166;-71
2022/08/02 07:44:22;;;;;;;3.97;3.67;;;;;;;;;;5034806;28;20205;-72
2022/08/02 07:46:47;;;;;;;4.70;3.50;;;;;;;;;;5052506;28;20189;-72
2022/08/02 07:49:17;;;;;;;3.20;2.90;;;;;;;;;;5041054;28;20184;-71
2022/08/02 07:51:46;;;;;;;3.20;3.00;;;;;;;;;;5053336;28;20186;-71
2022/08/02 07:54:11;;;;;;;4.10;3.07;;;;;;;;;;5029186;28;20225;-72
2022/08/02 07:56:36;;;;;;;4.20;2.77;;;;;;;;;;5045331;28;20176;-71
2022/08/02 07:59:02;;;;;;;4.00;3.60;;;;;;;;;;5030296;28;20186;-72
2022/08/02 08:01:27;;;;;;;4.00;3.60;;;;;;;;;;5026984;28;20280;-71
2022/08/02 08:03:52;;;;;;;3.73;3.30;;;;;;;;;;5046452;28;20299;-71
2022/08/02 08:06:18;;;;;;;3.80;3.50;;;;;;;;;;5044310;28;20209;-71
2022/08/02 08:08:43;;;;;;;3.87;3.43;;;;;;;;;;5034819;28;20183;-72
2022/08/02 08:11:08;;;;;;;3.83;3.53;;;;;;;;;;5042255;28;20247;-71
2022/08/02 08:13:33;;;;;;;4.80;3.63;;;;;;;;;;5055530;28;20173;-72
2022/08/02 08:15:59;;;;;;;4.70;4.37;;;;;;;;;;5043282;28;20267;-70
2022/08/02 08:18:24;;;;;;;8.40;4.17;;;;;;;;;;5034635;28;20212;-71
2022/08/02 08:20:50;;;;;;;3.87;3.57;;;;;;;;;;5046700;28;20180;-71
2022/08/02 08:23:15;;;;;;;4.47;3.70;;;;;;;;;;5002930;28;1353849;-72
2022/08/02 08:25:41;;;;;;;4.37;3.53;;;;;;;;;;5054237;28;20480;-72
2022/08/02 08:28:06;;;;;;;3.90;3.60;;;;;;;;;;5033099;28;20177;-72
2022/08/02 08:30:31;;;;;;;4.17;3.80;;;;;;;;;;5039030;28;20265;-70
2022/08/02 08:32:56;;;;;;;4.90;3.77;;;;;;;;;;5052736;28;20165;-70
2022/08/02 08:35:22;;;;;;;3.77;3.40;;;;;;;;;;5054740;28;20284;-71
2022/08/02 08:37:47;;;;;;;4.30;3.87;;;;;;;;;;5051726;28;20208;-71
2022/08/02 08:40:13;;;;;;;5.05;3.75;;;;;;;;;;5050437;28;20200;-72
2022/08/02 08:42:39;;;;;;;5.77;4.27;;;;;;;;;;5034924;28;20181;-72
2022/08/02 08:45:05;;;;;;;4.23;3.90;;;;;;;;;;5045335;28;20220;-71
2022/08/02 08:47:53;;;;;;;5.15;4.65;;;;;;;;;;5037508;28;20185;-71
2022/08/02 08:50:19;;;;;;;4.20;3.85;;;;;;;;;;5029001;28;20189;-71
2022/08/02 08:52:51;;;;;;;3.90;3.60;;;;;;;;;;5043347;28;20241;-72
2022/08/02 08:55:16;;;;;;;5.50;5.00;;;;;;;;;;5051002;28;20199;-71
2022/08/02 08:57:42;;;;;;;4.28;3.97;;;;;;;;;;5037136;28;20197;-73
2022/08/02 09:00:09;;;;;;;9.25;4.65;;;;;;;;;;5050066;28;20205;-71
2022/08/02 09:02:35;;;;;;;4.90;4.50;;;;;;;;;;5047379;28;20193;-71
2022/08/02 09:05:00;;;;;;;5.40;4.20;;;;;;;;;;5045362;28;20206;-72
2022/08/02 09:07:26;;;;;;;4.50;4.10;;;;;;;;;;5030366;28;20193;-71
2022/08/02 09:09:51;;;;;;;7.13;4.57;;;;;;;;;;5038939;28;20256;-71
2022/08/02 09:12:18;;;;;;;4.40;4.10;;;;;;;;;;5046202;28;20189;-71
2022/08/02 09:14:45;;;;;;;4.20;3.90;;;;;;;;;;5033540;28;20202;-71
2022/08/02 09:17:11;;;;;;;5.60;4.63;;;;;;;;;;5036684;28;20189;-71
2022/08/02 09:19:37;;;;;;;4.57;4.15;;;;;;;;;;5029196;28;20270;-71
2022/08/02 09:22:07;;;;;;;4.40;4.00;;;;;;;;;;5042375;28;20309;-72
2022/08/02 09:24:50;;;;;;;4.55;4.13;;;;;;;;;;5024834;28;20206;-71
2022/08/02 09:27:16;;;;;;;4.80;4.40;;;;;;;;;;5024074;28;20179;-73
2022/08/02 09:29:51;;;;;;;4.33;3.97;;;;;;;;;;5030474;28;20186;-73
2022/08/02 09:32:17;;;;;;;5.32;3.65;;;;;;;;;;5030446;28;20182;-71
2022/08/02 09:34:46;;;;;;;4.63;3.83;;;;;;;;;;5011947;28;20179;-71
2022/08/02 09:37:41;;;;;;;4.13;3.83;;;;;;;;;;5025269;28;20179;-72
2022/08/02 09:40:09;;;;;;;4.35;3.95;;;;;;;;;;4997683;28;20228;-72
2022/08/02 09:42:34;;;;;;;4.70;4.32;;;;;;;;;;5023056;28;20187;-71
2022/08/02 09:45:00;;;;;;;5.13;4.03;;;;;;;;;;5022709;28;20206;-71
2022/08/02 09:47:26;;;;;;;4.10;3.80;;;;;;;;;;5029470;28;20194;-71
2022/08/02 09:49:55;;;;;;;6.55;4.30;;;;;;;;;;5030922;28;20166;-71
2022/08/02 09:52:30;;;;;;;5.13;4.30;;;;;;;;;;5011696;28;20179;-72
2022/08/02 09:55:02;;;;;;;4.07;3.78;;;;;;;;;;5029968;28;20181;-72
2022/08/02 09:57:28;;;;;;;4.63;4.22;;;;;;;;;;5030314;28;20194;-71
2022/08/02 09:59:56;;;;;;;4.25;3.90;;;;;;;;;;5016992;28;20174;-72
2022/08/02 10:02:22;;;;;;;4.07;3.38;;;;;;;;;;5024627;28;20182;-71
2022/08/02 10:04:47;;;;;;;4.55;4.15;;;;;;;;;;5019023;28;20286;-71
2022/08/02 10:07:12;;;;;;;4.25;3.95;;;;;;;;;;5012917;28;20178;-71
2022/08/02 10:09:38;;;;;;;4.35;3.95;;;;;;;;;;5003727;28;20175;-72
2022/08/02 10:12:04;;;;;;;4.60;4.20;;;;;;;;;;5030731;28;20183;-71
2022/08/02 10:14:29;;;;;;;4.40;4.10;;;;;;;;;;5029731;28;20206;-71
2022/08/02 10:16:56;;;;;;;4.55;4.13;;;;;;;;;;5023497;28;20231;-71
2022/08/02 10:19:21;;;;;;;3.95;3.65;;;;;;;;;;5005147;28;20202;-72
2022/08/02 10:21:49;;;;;;;4.70;3.90;;;;;;;;;;5038427;28;20226;-71
2022/08/02 10:24:15;;;;;;;4.28;3.88;;;;;;;;;;5032204;28;20174;-71
2022/08/02 10:26:45;;;;;;;3.80;3.50;;;;;;;;;;5005382;28;20175;-71
2022/08/02 10:29:14;;;;;;;4.20;3.90;;;;;;;;;;5029884;28;20197;-71
2022/08/02 10:31:46;;;;;;;3.78;3.47;;;;;;;;;;5031458;28;20265;-72
2022/08/02 10:34:12;;;;;;;4.47;4.07;;;;;;;;;;5013013;28;20185;-72
2022/08/02 10:36:38;;;;;;;5.07;4.03;;;;;;;;;;5012694;28;20189;-72
2022/08/02 10:39:04;;;;;;;4.75;4.38;;;;;;;;;;5015671;28;20171;-72
2022/08/02 10:41:45;;;;;;;6.20;4.10;;;;;;;;;;5029366;28;20174;-72
2022/08/02 10:44:26;;;;;;;4.60;3.92;;;;;;;;;;5018255;28;20178;-71
2022/08/02 10:46:52;;;;;;;3.95;3.42;;;;;;;;;;5028942;28;20163;-72
2022/08/02 10:49:21;;;;;;;4.30;3.92;;;;;;;;;;5012278;28;20274;-72
2022/08/02 10:52:01;;;;;;;3.65;3.30;;;;;;;;;;5026711;28;20171;-72
2022/08/02 10:54:30;;;;;;;3.03;2.83;;;;;;;;;;5018090;28;20178;-71
2022/08/02 10:56:56;;;;;;;3.95;3.65;;;;;;;;;;5013546;28;20174;-71
2022/08/02 10:59:25;;;;;;;4.40;3.70;;;;;;;;;;5015193;28;20209;-71
2022/08/02 11:01:52;;;;;;;4.28;3.45;;;;;;;;;;5015518;28;20178;-71
2022/08/02 11:04:17;;;;;;;4.20;3.90;;;;;;;;;;5030450;28;20203;-71
2022/08/02 11:07:04;;;;;;;4.07;3.78;;;;;;;;;;5002876;28;20248;-71
2022/08/02 11:09:31;;;;;;;4.07;3.70;;;;;;;;;;5010910;28;20236;-71
2022/08/02 11:12:06;;;;;;;4.20;3.83;;;;;;;;;;5044353;28;20174;-72
2022/08/02 11:14:33;;;;;;;4.18;3.53;;;;;;;;;;5026792;28;20183;-71
2022/08/02 11:17:01;;;;;;;3.55;3.35;;;;;;;;;;5017981;28;20175;-71
2022/08/02 11:19:26;;;;;;;3.78;3.47;;;;;;;;;;5020571;28;20225;-71
2022/08/02 11:22:10;;;;;;;3.67;3.35;;;;;;;;;;5033660;28;20230;-71
2022/08/02 11:24:36;;;;;;;3.97;3.50;;;;;;;;;;5016316;28;20198;-72
2022/08/02 11:27:06;;;;;;;3.78;3.47;;;;;;;;;;5026900;28;20179;-71
2022/08/02 11:29:38;;;;;;;3.58;3.38;;;;;;;;;;5033363;28;20178;-71
2022/08/02 11:32:04;;;;;;;3.83;3.53;;;;;;;;;;5024374;28;20182;-71
2022/08/02 11:34:30;;;;;;;3.60;3.28;;;;;;;;;;5020532;28;20175;-71
2022/08/02 11:36:55;;;;;;;3.65;3.00;;;;;;;;;;5017203;28;20179;-71
2022/08/02 11:39:22;;;;;;;3.55;3.25;;;;;;;;;;5023654;28;20186;-72
2022/08/02 11:41:48;;;;;;;3.92;3.53;;;;;;;;;;5033376;28;20183;-71
2022/08/02 11:44:13;;;;;;;3.40;3.10;;;;;;;;;;5016735;28;20186;-71
2022/08/02 11:46:39;;;;;;;3.80;3.50;;;;;;;;;;5030530;28;20241;-71
2022/08/02 11:49:17;;;;;;;4.45;3.20;;;;;;;;;;5017392;28;20229;-72
2022/08/02 11:51:52;;;;;;;3.40;3.20;;;;;;;;;;5012396;28;20171;-72
2022/08/02 11:54:24;;;;;;;3.60;3.30;;;;;;;;;;5039865;28;20245;-71
2022/08/02 11:56:49;;;;;;;3.58;3.28;;;;;;;;;;5027700;28;20185;-72
2022/08/02 11:59:14;;;;;;;4.13;3.83;;;;;;;;;;5034426;28;20178;-72
2022/08/02 12:01:40;;;;;;;3.72;3.35;;;;;;;;;;5030703;28;20198;-71
2022/08/02 12:04:05;;;;;;;4.63;3.60;;;;;;;;;;5019352;28;20175;-73
2022/08/02 12:06:31;;;;;;;4.07;3.75;;;;;;;;;;5033687;28;20186;-72
2022/08/02 12:09:07;;;;;;;3.80;3.50;;;;;;;;;;5036846;28;20178;-72
2022/08/02 12:11:32;;;;;;;5.72;3.95;;;;;;;;;;5017243;28;20181;-71
2022/08/02 12:13:58;;;;;;;3.60;3.20;;;;;;;;;;5007748;28;20171;-71
2022/08/02 12:19:22;;;;;;;3.70;3.38;;;;;;;;;;5038859;28;20572;-71
2022/08/02 12:21:47;;;;;;;3.53;3.33;;;;;;;;;;5038357;28;20222;-71
2022/08/02 12:24:13;;;;;;;4.20;3.80;;;;;;;;;;5054169;28;20227;-71
2022/08/02 12:26:42;;;;;;;3.95;3.45;;;;;;;;;;5036031;28;20209;-71
2022/08/02 12:29:07;;;;;;;4.20;3.80;;;;;;;;;;5043614;28;20174;-71
2022/08/02 12:31:49;;;;;;;3.40;3.10;;;;;;;;;;5032213;28;20182;-71
2022/08/02 12:34:16;;;;;;;3.55;3.35;;;;;;;;;;5029745;28;20179;-72
2022/08/02 12:36:42;;;;;;;4.25;3.47;;;;;;;;;;5051044;28;20189;-72
2022/08/02 12:39:12;;;;;;;5.40;3.65;;;;;;;;;;5045947;28;20182;-71
2022/08/02 12:41:38;;;;;;;3.50;3.20;;;;;;;;;;5042542;28;20174;-72
2022/08/02 12:44:03;;;;;;;3.92;3.63;;;;;;;;;;5049035;28;20200;-71
2022/08/02 12:46:30;;;;;;;3.47;3.15;;;;;;;;;;5056095;28;20208;-72
2022/08/02 12:48:56;;;;;;;4.68;3.38;;;;;;;;;;5041605;28;20270;-72
2022/08/02 12:51:32;;;;;;;3.72;3.42;;;;;;;;;;5028617;28;20257;-71
2022/08/02 12:54:11;;;;;;;3.78;3.47;;;;;;;;;;5033897;28;20174;-72
2022/08/02 12:56:37;;;;;;;3.80;3.47;;;;;;;;;;5035378;28;20175;-72
2022/08/02 12:59:02;;;;;;;3.53;3.30;;;;;;;;;;5035131;28;20174;-72
2022/08/02 13:01:28;;;;;;;3.67;3.42;;;;;;;;;;5038711;28;20174;-72
2022/08/02 13:03:54;;;;;;;3.78;3.58;;;;;;;;;;5056707;28;20170;-73
2022/08/02 13:06:20;;;;;;;5.18;3.60;;;;;;;;;;5051473;28;20209;-71
2022/08/02 13:08:45;;;;;;;3.58;3.28;;;;;;;;;;5049220;28;20182;-72
2022/08/02 13:11:11;;;;;;;4.18;3.78;;;;;;;;;;5034620;28;20269;-72
2022/08/02 13:13:36;;;;;;;3.22;3.03;;;;;;;;;;5027212;28;20213;-72
2022/08/02 13:16:02;;;;;;;4.75;3.63;;;;;;;;;;5052257;28;20181;-72
2022/08/02 13:18:27;;;;;;;3.60;3.30;;;;;;;;;;5037131;28;20279;-71
2022/08/02 13:20:52;;;;;;;3.50;3.30;;;;;;;;;;5057235;28;20289;-71
2022/08/02 13:23:18;;;;;;;4.05;3.60;;;;;;;;;;5034896;28;20234;-72
2022/08/02 13:25:43;;;;;;;3.08;2.88;;;;;;;;;;5054957;28;20189;-72
2022/08/02 13:28:09;;;;;;;3.28;3.08;;;;;;;;;;5037066;28;20166;-71
2022/08/02 13:30:34;;;;;;;3.88;3.50;;;;;;;;;;5033743;28;20170;-71
2022/08/02 13:32:59;;;;;;;5.90;3.72;;;;;;;;;;5043093;28;20170;-71
2022/08/02 13:35:24;;;;;;;4.00;3.58;;;;;;;;;;5051104;28;20210;-71
2022/08/02 13:37:50;;;;;;;3.50;3.20;;;;;;;;;;5036012;28;20181;-72
2022/08/02 13:40:15;;;;;;;4.30;4.00;;;;;;;;;;5032262;28;20419;-72
2022/08/02 13:42:40;;;;;;;3.53;3.22;;;;;;;;;;5050100;28;20488;-71
2022/08/02 13:45:06;;;;;;;4.07;3.65;;;;;;;;;;5049330;28;20241;-72
2022/08/02 13:47:32;;;;;;;3.63;3.35;;;;;;;;;;5034974;28;20174;-72
2022/08/02 13:49:57;;;;;;;3.38;3.08;;;;;;;;;;5036498;28;20173;-72
2022/08/02 13:52:22;;;;;;;4.45;3.00;;;;;;;;;;5049067;28;20179;-72
2022/08/02 13:54:47;;;;;;;4.27;3.97;;;;;;;;;;5035400;28;20187;-71
2022/08/02 13:57:12;;;;;;;3.90;3.60;;;;;;;;;;5053772;28;20411;-72
2022/08/02 13:59:38;;;;;;;3.60;3.30;;;;;;;;;;5034264;28;20427;-72
2022/08/02 14:02:03;;;;;;;3.38;3.08;;;;;;;;;;5054067;28;20178;-71
2022/08/02 14:04:29;;;;;;;4.13;3.70;;;;;;;;;;5033265;28;20202;-71
2022/08/02 14:06:55;;;;;;;3.53;3.33;;;;;;;;;;5037191;28;20178;-72
2022/08/02 14:09:20;;;;;;;3.55;3.25;;;;;;;;;;5047451;28;20185;-72
2022/08/02 14:11:45;;;;;;;3.25;3.05;;;;;;;;;;5049146;28;20212;-71
2022/08/02 14:14:11;;;;;;;3.55;3.25;;;;;;;;;;5041426;28;20224;-72
2022/08/02 14:16:36;;;;;;;3.80;3.40;;;;;;;;;;5057777;28;20173;-71
2022/08/02 14:19:01;;;;;;;5.25;3.28;;;;;;;;;;5056498;28;20193;-71
2022/08/02 14:21:27;;;;;;;3.92;3.63;;;;;;;;;;5024662;28;20181;-72
2022/08/02 14:23:52;;;;;;;4.13;3.20;;;;;;;;;;5012338;28;20410;-71
2022/08/02 14:26:17;;;;;;;3.33;3.10;;;;;;;;;;5005654;28;20529;-72
2022/08/02 14:28:42;;;;;;;5.22;3.33;;;;;;;;;;5020859;28;20186;-72
2022/08/02 14:31:08;;;;;;;3.38;3.17;;;;;;;;;;5017920;28;20167;-71
2022/08/02 14:33:33;;;;;;;6.13;3.40;;;;;;;;;;5013219;28;20170;-71
2022/08/02 14:35:58;;;;;;;3.22;2.90;;;;;;;;;;5009517;28;20191;-72
2022/08/02 14:38:23;;;;;;;3.85;3.55;;;;;;;;;;5014416;28;20185;-71
2022/08/02 14:40:49;;;;;;;3.47;3.27;;;;;;;;;;5012332;28;20175;-72
2022/08/02 14:44:02;;;;;;;3.35;3.05;;;;;;;;;;5032889;28;20423;-73
2022/08/02 14:45:59;;;;;;;3.05;2.85;;;;;;;;;;5034423;28;20206;-72
2022/08/02 14:48:25;;;;;;;3.60;3.30;;;;;;;;;;5008243;28;20195;-72